Terminal Aerodrome Forecast
Issued by NWS

Home | Current Version | Previous Version | Text Only | Print | Product List | Glossary On
Versions: 1 2 3 4 5 6 7 8 9 10 11 12 13 14 15 16 17
000
FTUS41 KPHI 021400 AAA
TAFPNE
TAF AMD
KPNE 021441Z 0215/0312 03008KT P6SM BKN020
      TEMPO 0215/0217 SCT020 BKN035
     FM021700 04008KT P6SM SCT030 BKN035
     FM022100 06006KT P6SM BKN040
     FM030000 07004KT P6SM SCT045
     FM031000 VRB04KT 6SM BR FEW005 SCT015=

USA.gov is the U.S. government's official web portal to all federal, state and local government web resources and services.